• Join FlightAware (Why Join?)
  • Login
  • US Flag 
01:53PM EST


 

Airport Tracker/Info


-or-


 

Live Flight TrackerFlight Track Log ✈ N53NW ✈ 05-Sep-2013 ✈ KGKY - KSRC

Flight Track Log - Related Links

Times and Time Zones

All times are in EDT time to prevent confusion due to time zone crossing. See the N53NW flight status page for this flight to view local times or setup timezone preferences in your user account.

Time Position Orientation Groundspeed Altitude Reporting Facility
EDT Latitude Longitude Course Direction KTS MPH feet Rate Location/Type
02:00PM 32.6500 -97.0833 70° East 160 184 900  Level Dallas / Fort Worth TRACON
02:01PM 32.6000 -97.1000 196° South 244 281 2,000 1,800 Climbing Dallas / Fort Worth TRACON
02:02PM 32.5333 -97.1000 180° South 250 288 4,600 2,520 Climbing Dallas / Fort Worth TRACON
02:03PM 32.5167 -97.0167 103° East 274 315 7,100 2,700 Climbing Dallas / Fort Worth TRACON
02:04PM 32.4833 -96.9167 112° Southeast 281 323 10,000 3,000 Climbing Dallas / Fort Worth TRACON
02:05PM 32.5167 -96.8500 59° Northeast 265 305 13,100 2,760 Climbing Dallas / Fort Worth TRACON
02:06PM 32.5667 -96.7833 48° Northeast 272 313 15,600 1,980 Climbing Dallas / Fort Worth TRACON
02:07PM 32.9913 -96.6076 70° East  Level FlightAware Approximate
02:07PM 32.6208 -96.7450 31° Northeast 294 338 17,000  Level Fort Worth Center
02:08PM 32.7017 -96.6753 36° Northeast 312 359 17,400 1,020 Climbing Fort Worth Center
02:09PM 32.7642 -96.6178 38° Northeast 321 369 19,100 1,920 Climbing Fort Worth Center
02:10PM 32.8389 -96.5506 37° Northeast 316 364 21,300 1,980 Climbing Fort Worth Center
02:11PM 32.8989 -96.4931 39° Northeast 316 364 23,100 1,620 Climbing Fort Worth Center
02:12PM 32.9694 -96.4303 37° Northeast 316 364 24,600 1,500 Climbing Fort Worth Center
02:13PM 33.0419 -96.3675 36° Northeast 316 364 26,100 1,500 Climbing Fort Worth Center
02:14PM 33.0997 -96.2828 51° Northeast 316 364 27,600 1,500 Climbing Fort Worth Center
02:15PM 33.1300 -96.1781 71° East 316 364 29,100 1,500 Climbing Fort Worth Center
02:16PM 33.1603 -96.0708 71° East 316 364 30,600 900 Climbing Fort Worth Center
02:17PM 33.1986 -95.9611 67° East 330 380 31,000 180 Climbing Fort Worth Center
02:18PM 33.2244 -95.8392 76° East 362 417 31,000  Level Fort Worth Center
02:19PM 33.2625 -95.7167 70° East 379 436 31,000  Level Fort Worth Center
02:20PM 33.2961 -95.5942 72° East 389 448 31,000  Level Fort Worth Center
02:21PM 33.3339 -95.4717 70° East 389 448 31,000  Level Fort Worth Center
02:22PM 33.3675 -95.3489 72° East 389 448 31,000  Level Fort Worth Center
02:23PM 33.4050 -95.2236 70° East 389 448 31,000  Level Fort Worth Center
02:24PM 33.4383 -95.0983 72° East 389 448 31,000  Level Fort Worth Center
02:25PM 33.4775 -94.9703 70° East 389 448 31,000  Level Fort Worth Center
02:26PM 33.5128 -94.8497 71° East 389 448 31,000  Level Fort Worth Center
02:27PM 33.5536 -94.7117 70° East 389 448 31,000 -480 Level Fort Worth Center
02:28PM 33.5886 -94.5883 71° East 389 448 30,100 -960 Descending Fort Worth Center
02:29PM 33.6233 -94.4600 72° East 389 448 29,100 -1,020 Descending Fort Worth Center
02:30PM 33.6578 -94.3392 71° East 389 448 28,100 -1,020 Descending Fort Worth Center
02:31PM 33.6944 -94.2181 70° East 384 442 27,100 -1,020 Descending Fort Worth Center
02:33PM 33.7847 -94.0311 60° Northeast 380 437 25,200 -1,020 Descending Memphis Center
02:34PM 33.8425 -93.9161 59° Northeast 375 432 24,300 -1,020 Descending Memphis Center
02:35PM 33.8933 -93.8081 60° Northeast 369 425 23,200 -1,080 Descending Memphis Center
02:36PM 33.9464 -93.7025 59° Northeast 369 425 22,200 -1,020 Descending Memphis Center
02:37PM 33.9972 -93.5992 59° Northeast 369 425 21,200 -1,200 Descending Memphis Center
02:38PM 34.0478 -93.4958 59° Northeast 369 425 19,800 -1,500 Descending Memphis Center
02:39PM 34.0981 -93.3997 58° Northeast 354 407 18,300 -1,260 Descending Memphis Center
02:40PM 34.1544 -93.3164 51° Northeast 338 389 17,300 -1,140 Descending Memphis Center
02:41PM 34.2128 -93.2331 50° Northeast 324 373 16,100 -660 Descending Memphis Center
02:42PM 34.2689 -93.1494 51° Northeast 314 361 16,000 -60 Descending Memphis Center
02:43PM 34.3250 -93.0683 50° Northeast 314 361 16,000  Level Memphis Center
02:44PM 34.3747 -92.9894 53° Northeast 320 368 16,000  Level Memphis Center
02:45PM 34.4178 -92.9253 51° Northeast 324 373 16,000  Level Memphis Center
02:46PM 34.4714 -92.8461 51° Northeast 324 373 16,000 -1,080 Level Memphis Center
02:47PM 34.5317 -92.7572 51° Northeast 324 373 13,900 -2,100 Descending Memphis Center
02:48PM 34.5789 -92.6878 50° Northeast 305 351 12,000 -2,220 Descending Memphis Center
02:49PM 34.6344 -92.6061 50° Northeast 295 339 9,700 -2,100 Descending Memphis Center
02:50PM 34.6944 -92.5167 51° Northeast 274 315 7,400 -1,620 Descending Memphis Center
02:51PM 34.7458 -92.4397 51° Northeast 276 318 6,000 -720 Descending Memphis Center
02:52PM 34.7931 -92.3725 49° Northeast 263 303 6,000 -540 Level Memphis Center
02:53PM 34.8378 -92.3003 53° Northeast 263 303 5,000 -1,200 Descending Memphis Center
02:54PM 34.8828 -92.2331 51° Northeast 250 288 3,700 -1,080 Descending Memphis Center
02:55PM 34.9192 -92.1781 51° Northeast 229 264 3,000 -360 Descending Memphis Center
02:56PM 34.9681 -92.1081 50° Northeast 230 265 3,000  Level Memphis Center
02:57PM 35.0228 -92.0764 25° Northeast 223 257 3,000  Level Memphis Center
02:58PM 35.0544 -92.0364 46° Northeast 210 242 3,000  Level Memphis Center
02:59PM 35.0908 -91.9686 57° Northeast 220 253 3,000 -180 Level Memphis Center
03:00PM 35.1186 -91.9133 58° Northeast 224 258 2,700 -420 Descending Memphis Center
03:01PM 35.1508 -91.8478 59° Northeast 188 216 2,200 -480 Descending Memphis Center
03:03PM 35.1997 -91.7338 47° Northeast  Level FlightAware Approximate
03:10PM 35.2000 -91.7333 47° Northeast  Level FlightAware Approximate